Time;durP1;ratioP1;P1;durP2;ratioP2;P2;SDS_P1;SDS_P2;PMS_P1;PMS_P2;Temp;Humidity;BMP_temperature;BMP_pressure;BME280_temperature;BME280_humidity;BME280_pressure;Samples;Min_cycle;Max_cycle;Signal;HPM_P1;HPM_P2
2023/04/26 00:04:19;;;;;;;62.80;56.10;;;;;;;10.96;100.00;100033.38;6182257;23;20021;-89
2023/04/26 00:07:22;;;;;;;55.53;50.33;;;;;;;11.06;100.00;100032.81;6182689;23;20512;-89
2023/04/26 00:18:39;;;;;;;59.63;53.92;;;;;;;10.95;100.00;100039.69;6182108;23;20032;-90
2023/04/26 00:24:42;;;;;;;58.35;52.85;;;;;;;10.65;100.00;100024.56;6047777;23;20027;-90
2023/04/26 00:30:21;;;;;;;52.38;47.05;;;;;;;10.61;100.00;100019.91;6057712;23;20031;-89
2023/04/26 00:33:22;;;;;;;56.05;50.75;;;;;;;10.57;100.00;100021.41;6063225;23;20026;-90
2023/04/26 00:36:04;;;;;;;58.85;53.08;;;;;;;10.56;100.00;100031.22;6062857;23;20026;-90
2023/04/26 00:47:26;;;;;;;71.50;64.70;;;;;;;10.29;100.00;100026.19;6181637;23;20096;-89
2023/04/26 00:50:27;;;;;;;67.32;60.55;;;;;;;10.34;100.00;100022.88;6181612;23;20024;-89
2023/04/26 01:08:20;;;;;;;;;;;;;;;;;;;;;
2023/04/26 01:11:19;;;;;;;75.47;67.88;;;;;;;10.25;100.00;100014.34;6183729;23;20021;-89
2023/04/26 01:17:18;;;;;;;74.38;67.15;;;;;;;10.14;100.00;100016.94;6063890;23;20023;-90
2023/04/26 01:20:22;;;;;;;68.63;61.70;;;;;;;10.11;100.00;100020.84;6183878;23;20048;-90
2023/04/26 01:26:29;;;;;;;78.65;70.93;;;;;;;9.83;100.00;100008.88;6183685;23;20021;-89
2023/04/26 01:29:34;;;;;;;120.22;110.30;;;;;;;9.72;100.00;100008.75;6183988;23;20028;-90
2023/04/26 01:32:27;;;;;;;95.45;86.78;;;;;;;9.72;100.00;100008.75;6179457;23;20013;-89
2023/04/26 01:45:13;;;;;;;98.32;89.10;;;;;;;9.60;100.00;100008.66;6120483;23;20026;-90
2023/04/26 01:51:01;;;;;;;100.65;91.50;;;;;;;9.82;100.00;100001.13;6118903;23;20068;-88
2023/04/26 01:53:42;;;;;;;97.60;88.88;;;;;;;9.72;100.00;100000.81;6121647;23;20377;-90
2023/04/26 01:57:04;;;;;;;101.18;92.32;;;;;;;9.83;100.00;100013.34;6171558;23;20025;-90
2023/04/26 02:00:01;;;;;;;92.28;84.28;;;;;;;9.79;100.00;99994.41;6174662;23;20045;-90
2023/04/26 02:05:57;;;;;;;103.00;94.10;;;;;;;9.78;100.00;99981.38;6119606;23;20128;-89
2023/04/26 02:11:26;;;;;;;115.82;106.28;;;;;;;9.91;100.00;99981.22;6181346;23;20543;-90
2023/04/26 02:17:44;;;;;;;109.63;100.32;;;;;;;9.47;100.00;99972.47;6147081;23;20025;-89
2023/04/26 02:24:07;;;;;;;98.13;89.28;;;;;;;9.77;100.00;99969.97;6182704;23;20017;-90
2023/04/26 02:26:59;;;;;;;92.88;84.47;;;;;;;9.47;100.00;99983.06;6183426;23;20097;-89
2023/04/26 02:30:12;;;;;;;96.30;87.50;;;;;;;9.65;100.00;99984.94;6183715;23;20380;-90
2023/04/26 02:33:23;;;;;;;94.55;85.72;;;;;;;9.61;100.00;99976.59;6182792;23;20040;-89
2023/04/26 02:36:05;;;;;;;85.05;77.05;;;;;;;9.72;100.00;99985.69;6092271;23;20521;-88
2023/04/26 02:39:22;;;;;;;90.00;81.70;;;;;;;9.72;100.00;99977.75;6101790;23;20085;-90
2023/04/26 02:42:00;;;;;;;83.15;75.50;;;;;;;9.74;100.00;99988.97;6183153;23;20023;-91
2023/04/26 02:47:47;;;;;;;82.70;75.00;;;;;;;9.46;100.00;99975.31;6175160;23;20029;-89
2023/04/26 02:50:33;;;;;;;86.75;78.68;;;;;;;9.37;100.00;99982.72;6183057;23;20017;-89
2023/04/26 02:53:46;;;;;;;82.43;74.60;;;;;;;9.34;100.00;99994.56;6183431;23;20013;-90
2023/04/26 02:56:37;;;;;;;85.88;77.95;;;;;;;9.51;100.00;99976.28;6140964;23;20021;-90
2023/04/26 03:05:09;;;;;;;81.47;73.82;;;;;;;9.37;100.00;99982.72;6177948;23;20025;-89
2023/04/26 03:07:57;;;;;;;80.00;72.32;;;;;;;9.49;100.00;99993.44;6182776;23;20559;-90
2023/04/26 03:10:43;;;;;;;74.90;67.60;;;;;;;9.58;100.00;99998.25;6183348;23;20017;-89
2023/04/26 03:19:55;;;;;;;116.53;107.85;;;;;;;9.70;100.00;99994.91;6175595;23;20052;-90
2023/04/26 03:25:57;;;;;;;93.28;86.35;;;;;;;9.88;100.00;99984.31;6176789;23;20092;-90
2023/04/26 03:35:05;;;;;;;101.05;93.65;;;;;;;9.87;100.00;99985.38;6091728;23;20435;-89
2023/04/26 03:43:31;;;;;;;80.72;74.63;;;;;;;9.78;100.00;99999.94;6181510;23;20459;-90
2023/04/26 03:55:10;;;;;;;96.60;89.57;;;;;;;9.89;100.00;100030.22;6177810;23;20028;-90
2023/04/26 03:58:10;;;;;;;105.55;97.88;;;;;;;9.98;100.00;100032.38;6179939;23;20419;-90
2023/04/26 04:07:42;;;;;;;90.57;83.88;;;;;;;10.15;100.00;100043.25;6175643;23;20056;-89
2023/04/26 04:13:47;;;;;;;;;;;;;;;;;;;;;
2023/04/26 04:19:38;;;;;;;82.22;76.13;;;;;;;10.52;100.00;100036.13;6169603;23;20494;-89
2023/04/26 04:26:24;;;;;;;88.85;82.20;;;;;;;10.73;100.00;100055.31;6164008;23;20021;-89
2023/04/26 04:29:19;;;;;;;75.22;69.72;;;;;;;10.92;100.00;100064.91;6180957;23;20375;-89
2023/04/26 04:35:19;;;;;;;80.78;74.60;;;;;;;11.13;100.00;100070.75;6167083;23;20028;-90
2023/04/26 04:38:41;;;;;;;76.07;70.47;;;;;;;11.02;100.00;100067.00;6182167;23;20515;-89
2023/04/26 04:51:05;;;;;;;87.60;81.43;;;;;;;11.05;100.00;100069.22;6149127;23;20116;-90
2023/04/26 05:08:29;;;;;;;60.38;55.97;;;;;;;11.46;100.00;100071.09;6179879;23;20076;-89
2023/04/26 05:18:09;;;;;;;57.15;53.30;;;;;;;11.00;100.00;100056.59;6178759;23;20031;-89
2023/04/26 05:23:47;;;;;;;53.13;49.17;;;;;;;11.15;100.00;100058.06;6178301;23;20047;-90
2023/04/26 05:26:39;;;;;;;53.53;49.17;;;;;;;11.00;100.00;100045.16;6183965;23;20048;-90
2023/04/26 05:29:22;;;;;;;52.72;48.78;;;;;;;11.31;100.00;100044.09;6178015;23;20021;-90
2023/04/26 05:32:03;;;;;;;56.58;52.30;;;;;;;11.50;100.00;100034.22;6183375;23;20021;-89
2023/04/26 05:34:51;;;;;;;54.45;50.28;;;;;;;11.74;100.00;100027.09;6183299;23;20017;-89
2023/04/26 05:41:26;;;;;;;55.42;51.10;;;;;;;12.26;100.00;100043.22;6059697;23;20038;-89
2023/04/26 05:44:05;;;;;;;55.58;51.63;;;;;;;12.26;100.00;100029.09;6183579;23;20017;-90
2023/04/26 05:58:52;;;;;;;46.65;43.38;;;;;;;12.93;100.00;100040.03;6121802;23;20381;-89
2023/04/26 06:04:57;;;;;;;;;;;;;;;;;;;;;
2023/04/26 06:22:49;;;;;;;33.70;31.00;;;;;;;13.40;100.00;100017.69;6171503;23;20079;-89
2023/04/26 06:37:16;;;;;;;28.95;26.85;;;;;;;13.40;100.00;100031.81;6182474;23;20080;-89
2023/04/26 06:43:18;;;;;;;32.83;30.33;;;;;;;13.83;100.00;100035.75;6173886;23;20025;-89
2023/04/26 06:45:57;;;;;;;27.80;25.70;;;;;;;13.60;100.00;100022.56;6182593;23;20027;-89
2023/04/26 06:48:38;;;;;;;30.20;27.90;;;;;;;14.03;100.00;100034.41;6181981;23;20148;-89
2023/04/26 06:51:21;;;;;;;26.45;24.48;;;;;;;13.78;100.00;100034.84;6182373;23;20064;-89
2023/04/26 07:00:42;;;;;;;25.35;23.38;;;;;;;13.92;100.00;100042.28;6180935;23;20029;-90
2023/04/26 07:09:07;;;;;;;26.45;24.42;;;;;;;14.50;100.00;100040.16;6177157;23;20120;-89
2023/04/26 07:14:42;;;;;;;22.60;21.15;;;;;;;14.07;100.00;100052.38;6167329;23;20025;-89
2023/04/26 07:17:51;;;;;;;29.48;27.38;;;;;;;14.66;100.00;100033.94;6181601;23;20096;-90
2023/04/26 07:29:35;;;;;;;23.38;21.77;;;;;;;14.97;100.00;100038.84;6178017;23;20021;-89
2023/04/26 07:32:42;;;;;;;22.45;20.92;;;;;;;14.87;100.00;100055.56;6182754;23;20017;-90
2023/04/26 07:35:28;;;;;;;21.10;19.60;;;;;;;14.55;100.00;100050.91;6182152;23;20099;-90
2023/04/26 07:41:39;;;;;;;24.85;23.13;;;;;;;15.54;100.00;100049.03;6178178;23;20087;-89
2023/04/26 07:47:50;;;;;;;21.85;20.35;;;;;;;14.93;100.00;100043.09;6177581;23;20029;-89
2023/04/26 07:50:51;;;;;;;21.77;20.48;;;;;;;15.35;100.00;100053.94;6182041;23;20474;-89
2023/04/26 07:54:04;;;;;;;22.63;21.10;;;;;;;15.53;100.00;100052.75;6175661;23;20021;-89
2023/04/26 08:06:25;;;;;;;19.15;17.95;;;;;;;15.66;100.00;100054.19;6174619;23;20025;-89
2023/04/26 08:09:15;;;;;;;20.27;18.83;;;;;;;15.25;100.00;100053.81;6171953;23;20024;-89
2023/04/26 08:17:53;;;;;;;19.98;18.60;;;;;;;16.39;100.00;100049.09;6121129;23;20040;-88
2023/04/26 08:20:57;;;;;;;20.02;18.75;;;;;;;16.32;100.00;100051.22;6169809;23;20033;-90
2023/04/26 08:23:41;;;;;;;19.00;17.80;;;;;;;16.20;100.00;100044.16;6180533;23;20029;-89
2023/04/26 08:26:24;;;;;;;18.92;17.63;;;;;;;16.01;100.00;100051.81;6180742;23;20100;-90
2023/04/26 08:32:23;;;;;;;20.58;19.27;;;;;;;15.68;100.00;100055.59;6180031;23;20033;-90
2023/04/26 08:35:21;;;;;;;19.00;17.80;;;;;;;15.84;100.00;100045.81;6180904;23;20013;-90
2023/04/26 08:38:13;;;;;;;19.25;18.00;;;;;;;15.99;100.00;100050.47;6182092;23;20021;-89
2023/04/26 08:47:03;;;;;;;19.50;18.20;;;;;;;16.99;100.00;100047.75;6177702;23;20032;-89
2023/04/26 08:50:14;;;;;;;21.65;20.20;;;;;;;17.00;100.00;100041.28;6181855;23;20419;-90
2023/04/26 08:53:09;;;;;;;21.20;19.83;;;;;;;16.56;100.00;100046.22;6181379;23;20028;-90
2023/04/26 08:56:02;;;;;;;19.52;18.20;;;;;;;16.31;100.00;100047.72;6180526;23;20013;-90
2023/04/26 08:59:24;;;;;;;22.25;20.83;;;;;;;16.24;100.00;100057.84;6180306;23;20494;-90
2023/04/26 09:05:23;;;;;;;19.02;17.92;;;;;;;16.93;100.00;100036.19;6178363;23;21034;-89
2023/04/26 09:08:12;;;;;;;22.08;20.55;;;;;;;15.90;100.00;100052.81;6174742;23;20025;-89
2023/04/26 09:10:51;;;;;;;21.08;19.23;;;;;;;16.85;100.00;100038.56;6181486;23;20021;-90
2023/04/26 09:13:56;;;;;;;20.35;19.05;;;;;;;16.63;100.00;100028.81;6180992;23;20028;-91
2023/04/26 09:22:44;;;;;;;19.90;18.58;;;;;;;16.80;100.00;100044.75;6175892;23;20028;-90
2023/04/26 09:28:37;;;;;;;22.08;20.48;;;;;;;17.89;100.00;100041.13;6157523;23;20023;-89
2023/04/26 09:31:51;;;;;;;21.23;19.83;;;;;;;18.24;100.00;100037.56;6182897;23;20017;-90
2023/04/26 09:35:08;;;;;;;21.13;19.77;;;;;;;16.91;100.00;100040.19;6182335;23;20020;-89
2023/04/26 09:38:05;;;;;;;21.05;19.73;;;;;;;16.83;100.00;100048.78;6183405;23;20021;-90
2023/04/26 09:46:44;;;;;;;18.33;17.23;;;;;;;16.99;100.00;100022.81;6170140;23;20029;-90
2023/04/26 09:49:52;;;;;;;18.58;17.45;;;;;;;17.32;100.00;100038.41;6182135;23;20076;-90
2023/04/26 09:53:06;;;;;;;19.27;18.08;;;;;;;16.54;100.00;100048.34;6143591;23;20021;-89
2023/04/26 09:58:36;;;;;;;19.27;18.17;;;;;;;17.25;100.00;100031.72;6176960;23;20028;-89
2023/04/26 10:01:28;;;;;;;18.17;16.98;;;;;;;17.42;100.00;100024.19;6182815;23;20017;-89
2023/04/26 10:04:15;;;;;;;18.60;17.47;;;;;;;17.50;100.00;100023.66;6182797;23;20028;-89
2023/04/26 10:07:06;;;;;;;20.90;19.70;;;;;;;16.43;100.00;100036.78;6183063;23;20055;-89
2023/04/26 10:09:42;;;;;;;19.80;18.60;;;;;;;16.52;100.00;100032.56;6185503;23;20087;-90
2023/04/26 10:15:48;;;;;;;21.70;20.40;;;;;;;17.85;100.00;100028.25;6185067;23;20091;-89
2023/04/26 10:18:18;;;;;;;22.98;21.70;;;;;;;17.79;100.00;100013.22;6186324;23;20028;-89
2023/04/26 10:21:05;;;;;;;23.25;21.75;;;;;;;18.66;100.00;100012.94;6184455;23;20025;-89
2023/04/26 10:30:31;;;;;;;26.25;24.85;;;;;;;17.69;100.00;100023.91;6184114;23;20025;-89
2023/04/26 10:40:03;;;;;;;25.58;24.08;;;;;;;18.06;100.00;100020.13;6184451;23;20100;-89
2023/04/26 10:43:25;;;;;;;22.70;21.48;;;;;;;17.93;100.00;100026.88;6092147;23;20026;-89
2023/04/26 10:51:39;;;;;;;18.40;17.20;;;;;;;18.23;100.00;100022.53;6175375;23;20104;-89
2023/04/26 10:54:07;;;;;;;18.85;17.65;;;;;;;18.27;100.00;100013.63;6176116;23;20021;-89
2023/04/26 11:16:52;;;;;;;29.63;27.92;;;;;;;18.12;100.00;100024.41;6024553;23;20035;-89
2023/04/26 11:19:56;;;;;;;29.63;27.85;;;;;;;17.44;100.00;100026.63;6036016;23;20023;-93
2023/04/26 11:32:20;;;;;;;23.42;22.20;;;;;;;17.20;100.00;100016.41;6068934;23;20026;-93
2023/04/26 11:44:29;;;;;;;23.30;22.00;;;;;;;18.20;100.00;99986.25;6182393;23;20483;-93
2023/04/26 11:53:40;;;;;;;21.88;20.58;;;;;;;17.54;100.00;100008.63;6116512;23;20392;-93
2023/04/26 12:00:35;;;;;;;17.83;16.73;;;;;;;18.30;100.00;99982.72;5997400;23;20118;-93
2023/04/26 12:03:46;;;;;;;24.25;22.95;;;;;;;19.03;100.00;99995.53;5999451;23;20027;-93
2023/04/26 12:17:05;;;;;;;;;;;;;;;;;;;;;
2023/04/26 12:20:09;;;;;;;22.73;21.40;;;;;;;19.83;100.00;100002.47;4645414;27;15093913;-94
2023/04/26 12:22:37;;;;;;;23.98;22.05;;;;;;;19.82;100.00;99995.50;5180956;27;20090;-92
2023/04/26 12:25:09;;;;;;;26.95;25.40;;;;;;;18.65;100.00;99994.41;5179517;27;20045;-92
2023/04/26 12:27:36;;;;;;;20.60;19.30;;;;;;;19.78;100.00;99994.44;5175653;27;20042;-92
2023/04/26 12:43:22;;;;;;;21.77;20.40;;;;;;;18.97;100.00;99972.44;5175189;27;20053;-93
2023/04/26 13:04:25;;;;;;;;;;;;;;;;;;;;;
2023/04/26 13:09:48;;;;;;;24.73;23.33;;;;;;;18.20;100.00;99980.88;5152997;27;20229;-92
2023/04/26 13:12:18;;;;;;;23.50;22.00;;;;;;;17.62;100.00;99985.81;5173775;27;20039;-92
2023/04/26 13:17:30;;;;;;;21.92;20.52;;;;;;;18.34;100.00;99983.78;5171107;27;20041;-93
2023/04/26 13:19:57;;;;;;;24.27;22.38;;;;;;;18.51;100.00;99983.44;5177542;27;20050;-92
2023/04/26 13:22:24;;;;;;;24.13;22.67;;;;;;;18.95;100.00;99988.06;5174558;27;20509;-92
2023/04/26 13:28:03;;;;;;;23.83;22.33;;;;;;;18.19;100.00;99975.78;5100410;28;20050;-92
2023/04/26 13:30:30;;;;;;;24.60;23.10;;;;;;;18.30;100.00;99994.25;5167643;27;20062;-92
2023/04/26 13:32:57;;;;;;;22.67;20.85;;;;;;;18.95;100.00;99988.06;5161867;27;20050;-93
2023/04/26 13:38:22;;;;;;;17.50;16.27;;;;;;;19.36;100.00;99993.94;5158854;27;20123;-93
2023/04/26 13:47:16;;;;;;;18.17;16.88;;;;;;;18.46;100.00;99995.03;5158247;27;20054;-93
2023/04/26 14:05:48;;;;;;;18.10;16.88;;;;;;;18.05;100.00;99999.72;5035482;27;20126;-93
2023/04/26 14:08:34;;;;;;;22.13;20.83;;;;;;;18.04;100.00;99990.06;5164701;27;20106;-93
2023/04/26 14:26:22;;;;;;;17.20;16.00;;;;;;;18.53;100.00;99995.53;5164451;27;20047;-93
2023/04/26 14:51:25;;;;;;;17.60;16.45;;;;;;;18.13;100.00;100004.56;5060693;28;20056;-92
2023/04/26 14:53:54;;;;;;;20.27;18.98;;;;;;;18.00;100.00;100005.09;5073576;28;20556;-92
2023/04/26 14:56:25;;;;;;;20.05;18.45;;;;;;;17.91;100.00;100001.38;5144562;27;20046;-92
2023/04/26 15:14:55;;;;;;;51.53;46.83;;;;;;;17.25;100.00;100042.44;5161849;27;20045;-93
2023/04/26 15:18:14;;;;;;;21.52;19.73;;;;;;;16.98;100.00;100046.16;5161722;27;20047;-92
2023/04/26 15:21:16;;;;;;;20.67;18.98;;;;;;;16.54;100.00;100067.13;5166492;27;20046;-95
2023/04/26 15:24:31;;;;;;;21.35;19.85;;;;;;;16.38;100.00;100082.31;5164539;27;20510;-90
2023/04/26 15:27:25;;;;;;;22.98;21.15;;;;;;;16.36;100.00;100092.50;5127767;27;20049;-90
2023/04/26 15:36:15;;;;;;;23.70;22.10;;;;;;;15.86;100.00;100109.84;5136807;27;20046;-90
2023/04/26 15:39:08;;;;;;;24.70;23.00;;;;;;;16.00;100.00;100124.38;5156138;27;20315;-90
2023/04/26 15:41:50;;;;;;;26.33;24.52;;;;;;;16.02;100.00;100120.38;5162474;27;20046;-90
2023/04/26 15:44:51;;;;;;;24.48;22.77;;;;;;;15.71;100.00;100134.59;5166252;27;20054;-90
2023/04/26 15:47:31;;;;;;;28.00;26.08;;;;;;;15.55;100.00;100147.81;5158065;27;20045;-90
2023/04/26 15:56:05;;;;;;;31.02;28.73;;;;;;;14.94;100.00;100167.69;5156157;27;20045;-90
2023/04/26 15:58:35;;;;;;;35.92;33.25;;;;;;;15.18;100.00;100163.69;5167642;27;20075;-90
2023/04/26 16:01:02;;;;;;;34.83;32.33;;;;;;;14.98;100.00;100166.94;5164512;27;20520;-90
2023/04/26 16:03:29;;;;;;;33.55;31.00;;;;;;;14.65;100.00;100170.53;5154026;27;20419;-90
2023/04/26 16:05:56;;;;;;;34.40;31.88;;;;;;;15.07;100.00;100167.34;5169068;27;20077;-90
2023/04/26 16:08:23;;;;;;;32.25;29.95;;;;;;;14.82;100.00;100173.13;5161928;27;20043;-90
2023/04/26 16:10:50;;;;;;;30.00;27.85;;;;;;;14.53;100.00;100175.97;5156264;27;20053;-89
2023/04/26 16:13:20;;;;;;;31.98;29.88;;;;;;;14.31;100.00;100181.22;5158147;27;20076;-90
2023/04/26 16:15:51;;;;;;;32.78;30.60;;;;;;;14.81;100.00;100192.91;5157809;27;20062;-90
2023/04/26 16:18:19;;;;;;;29.15;27.00;;;;;;;14.54;100.00;100188.25;5156794;27;20047;-90
2023/04/26 16:51:12;;;;;;;33.08;30.40;;;;;;;13.81;100.00;100237.22;4891661;29;20092;-90
2023/04/26 16:53:39;;;;;;;36.83;33.78;;;;;;;13.85;100.00;100249.03;4931263;28;20047;-90
2023/04/26 16:56:06;;;;;;;39.70;36.97;;;;;;;13.86;100.00;100258.69;5066905;28;20059;-90
2023/04/26 16:58:33;;;;;;;37.45;34.97;;;;;;;13.86;100.00;100258.69;5150244;27;20034;-90
2023/04/26 17:01:00;;;;;;;38.28;35.60;;;;;;;14.23;100.00;100261.72;5161224;27;20098;-93
2023/04/26 17:03:27;;;;;;;43.25;40.45;;;;;;;13.87;100.00;100265.63;5163948;27;20039;-90
2023/04/26 17:05:54;;;;;;;40.13;37.22;;;;;;;14.00;100.00;100265.31;5156560;27;20070;-90
2023/04/26 17:08:22;;;;;;;40.10;37.20;;;;;;;13.83;100.00;100278.66;5159257;27;20038;-90
2023/04/26 17:10:51;;;;;;;41.30;38.50;;;;;;;13.54;100.00;100279.66;5159607;27;20526;-90
2023/04/26 17:13:21;;;;;;;40.47;37.72;;;;;;;14.05;100.00;100281.44;5157891;27;20054;-89
2023/04/26 17:15:48;;;;;;;41.95;38.95;;;;;;;13.75;100.00;100292.34;5161953;27;20072;-89
2023/04/26 17:18:15;;;;;;;44.53;41.22;;;;;;;13.56;100.00;100298.91;5161051;27;20043;-89
2023/04/26 17:20:42;;;;;;;48.53;44.83;;;;;;;13.59;100.00;100298.44;5161117;27;20137;-90
2023/04/26 17:23:09;;;;;;;47.38;43.72;;;;;;;13.37;100.00;100303.56;5166808;27;20051;-89
2023/04/26 17:25:37;;;;;;;52.15;48.35;;;;;;;13.54;100.00;100314.34;5160551;27;20102;-89
2023/04/26 17:28:04;;;;;;;59.30;54.90;;;;;;;13.33;100.00;100315.75;5160124;27;20316;-89
2023/04/26 17:30:31;;;;;;;53.80;49.92;;;;;;;13.85;100.00;100310.41;5164649;27;20110;-90
2023/04/26 17:32:58;;;;;;;46.88;43.38;;;;;;;13.17;100.00;100311.91;5167608;27;20054;-90
2023/04/26 17:35:25;;;;;;;51.58;46.85;;;;;;;13.64;100.00;100320.69;5162503;27;20042;-89
2023/04/26 17:37:51;;;;;;;48.28;43.47;;;;;;;13.04;100.00;100313.78;5159148;27;20050;-90
2023/04/26 17:40:19;;;;;;;52.38;48.28;;;;;;;12.66;100.00;100316.84;5158175;27;20050;-88
2023/04/26 17:42:49;;;;;;;65.93;61.13;;;;;;;13.20;100.00;100328.25;5164861;27;20057;-89
2023/04/26 17:45:16;;;;;;;62.63;58.05;;;;;;;13.43;100.00;100335.44;5164794;27;20043;-89
2023/04/26 17:47:44;;;;;;;60.15;55.67;;;;;;;13.28;100.00;100341.28;5161946;27;20502;-89
2023/04/26 17:50:11;;;;;;;60.65;55.85;;;;;;;12.56;100.00;100345.91;5160639;27;20050;-89
2023/04/26 17:52:38;;;;;;;76.35;70.47;;;;;;;12.67;100.00;100347.78;5167702;27;20513;-90
2023/04/26 17:55:08;;;;;;;87.70;81.10;;;;;;;12.45;100.00;100363.47;5163883;27;20046;-90
2023/04/26 17:57:35;;;;;;;85.75;79.45;;;;;;;12.48;100.00;100370.22;5164852;27;20046;-90
2023/04/26 18:00:04;;;;;;;91.75;84.88;;;;;;;12.51;100.00;100380.41;5169039;27;20034;-90
2023/04/26 18:02:31;;;;;;;97.57;90.30;;;;;;;12.56;100.00;100383.22;5166200;27;20479;-89
2023/04/26 18:04:58;;;;;;;100.70;93.20;;;;;;;12.48;100.00;100397.66;5165495;27;20041;-89
2023/04/26 18:07:25;;;;;;;99.05;92.00;;;;;;;13.55;100.00;100407.47;5168066;27;20433;-89
2023/04/26 18:09:52;;;;;;;87.35;80.82;;;;;;;12.69;100.00;100407.00;5159308;27;20054;-90
2023/04/26 18:16:25;;;;;;;68.80;63.80;;;;;;;13.20;100.00;100410.94;5157949;27;20465;-89
2023/04/26 19:16:28;;;;;;;174.77;162.88;;;;;;;11.66;100.00;100525.69;4898453;29;20039;-89
2023/04/26 19:21:39;;;;;;;171.32;159.75;;;;;;;11.67;100.00;100535.28;4981386;28;20058;-90
2023/04/26 19:24:06;;;;;;;175.63;164.02;;;;;;;11.60;100.00;100539.03;5154776;27;20639;-89
2023/04/26 19:26:33;;;;;;;146.50;136.52;;;;;;;11.51;100.00;100543.00;5158694;27;20061;-89
2023/04/26 19:29:00;;;;;;;96.22;88.35;;;;;;;11.50;100.00;100552.00;5160026;27;20049;-88
2023/04/26 19:31:30;;;;;;;88.80;81.50;;;;;;;11.69;100.00;100551.84;5160052;27;20046;-89
2023/04/26 19:33:57;;;;;;;142.43;132.77;;;;;;;11.25;100.00;100552.78;5160846;27;20046;-89
2023/04/26 19:36:24;;;;;;;141.55;131.75;;;;;;;11.18;100.00;100555.47;5161899;27;20061;-89
2023/04/26 19:38:51;;;;;;;131.48;122.43;;;;;;;11.28;100.00;100555.00;5157723;27;20498;-89
2023/04/26 19:41:22;;;;;;;136.75;127.55;;;;;;;11.01;100.00;100551.69;5157390;27;20038;-89
2023/04/26 19:43:49;;;;;;;111.03;103.32;;;;;;;10.94;100.00;100565.00;5161832;27;20119;-89
2023/04/26 19:46:22;;;;;;;107.32;99.85;;;;;;;10.86;100.00;100572.41;5162742;27;20574;-89
2023/04/26 19:48:52;;;;;;;;;;;;;;;11.15;100.00;100571.03;5158871;27;20121;-89
2023/04/26 19:51:22;;;;;;;120.45;112.38;;;;;;;10.86;100.00;100575.06;5156599;27;20370;-89
2023/04/26 19:53:49;;;;;;;91.28;84.32;;;;;;;10.85;100.00;100573.44;5158011;27;20403;-89
2023/04/26 19:56:16;;;;;;;74.10;67.95;;;;;;;10.91;100.00;100572.59;5158920;27;20035;-89
2023/04/26 19:58:43;;;;;;;76.10;69.72;;;;;;;10.88;100.00;100575.66;5157087;27;20047;-89
2023/04/26 20:01:10;;;;;;;70.60;64.90;;;;;;;11.01;100.00;100586.22;5159826;27;20133;-89
2023/04/26 20:03:37;;;;;;;82.55;76.53;;;;;;;11.21;100.00;100584.28;5159750;27;20671;-90
2023/04/26 20:06:08;;;;;;;85.68;79.43;;;;;;;11.12;100.00;100585.56;5156953;27;20542;-89
2023/04/26 20:08:35;;;;;;;91.60;84.90;;;;;;;11.68;100.00;100592.81;5160325;27;20042;-89
2023/04/26 20:11:05;;;;;;;83.40;77.47;;;;;;;11.03;100.00;100599.31;5162536;27;20087;-90
2023/04/26 20:13:32;;;;;;;88.90;82.55;;;;;;;11.20;100.00;100603.13;5161731;27;20046;-89
2023/04/26 20:15:59;;;;;;;86.22;80.03;;;;;;;10.96;100.00;100604.66;5159856;27;20038;-89
2023/04/26 20:18:26;;;;;;;92.85;86.15;;;;;;;10.61;100.00;100617.44;5153544;27;20046;-89
2023/04/26 20:20:53;;;;;;;100.80;93.32;;;;;;;10.62;100.00;100619.06;5160748;27;20129;-89
2023/04/26 20:23:21;;;;;;;97.20;90.20;;;;;;;10.97;100.00;100616.91;5163246;27;20047;-89
2023/04/26 20:25:51;;;;;;;112.85;104.43;;;;;;;11.07;100.00;100605.84;5161343;27;20571;-89
2023/04/26 20:28:18;;;;;;;65.20;59.70;;;;;;;11.12;100.00;100608.69;5158536;27;20407;-89
2023/04/26 20:30:45;;;;;;;59.65;54.28;;;;;;;10.97;100.00;100615.06;5156336;27;20498;-89
2023/04/26 20:33:11;;;;;;;65.47;59.78;;;;;;;10.59;100.00;100620.31;5161864;27;20053;-89
2023/04/26 20:35:38;;;;;;;68.38;62.38;;;;;;;9.96;100.00;100612.00;4803333;27;9999812;-90
2023/04/26 20:38:05;;;;;;;84.13;77.03;;;;;;;10.18;100.00;100610.75;5157997;27;20111;-89
2023/04/26 20:40:33;;;;;;;86.15;79.00;;;;;;;10.65;100.00;100629.28;5160245;27;20495;-89
2023/04/26 20:43:00;;;;;;;79.32;72.32;;;;;;;10.78;100.00;100619.44;5164083;27;20046;-90
2023/04/26 20:45:27;;;;;;;70.78;64.68;;;;;;;10.12;100.00;100624.03;5166964;27;20053;-89
2023/04/26 20:47:54;;;;;;;77.75;71.15;;;;;;;9.86;100.00;100626.50;5163702;27;20042;-89
2023/04/26 20:50:22;;;;;;;75.60;69.28;;;;;;;10.08;100.00;100639.56;5162950;27;20050;-89
2023/04/26 20:52:49;;;;;;;78.45;71.85;;;;;;;10.53;100.00;100637.91;5163966;27;20402;-89
2023/04/26 20:55:18;;;;;;;62.72;57.20;;;;;;;9.95;100.00;100644.84;5160999;27;20530;-89
2023/04/26 20:57:46;;;;;;;71.22;64.93;;;;;;;10.37;100.00;100648.94;5164818;27;20050;-89
2023/04/26 21:00:16;;;;;;;65.53;59.63;;;;;;;9.92;100.00;100648.72;5160695;27;20498;-89
2023/04/26 21:02:42;;;;;;;66.88;61.22;;;;;;;10.48;100.00;100656.28;5163362;27;20062;-89
2023/04/26 21:05:10;;;;;;;57.85;52.47;;;;;;;9.88;100.00;100649.34;5157287;27;20359;-89
2023/04/26 21:07:37;;;;;;;57.88;52.55;;;;;;;9.87;100.00;100648.53;5161499;27;20050;-89
2023/04/26 21:10:04;;;;;;;68.75;62.55;;;;;;;10.03;100.00;100649.94;5159471;27;20057;-89
2023/04/26 21:12:31;;;;;;;61.90;56.28;;;;;;;9.82;100.00;100654.41;5153865;27;20043;-89
2023/04/26 21:15:00;;;;;;;62.45;57.05;;;;;;;10.18;100.00;100655.88;5166465;27;20046;-89
2023/04/26 21:17:27;;;;;;;56.35;51.53;;;;;;;9.82;100.00;100662.38;5164805;27;20050;-89
2023/04/26 21:19:54;;;;;;;59.42;54.03;;;;;;;9.71;100.00;100668.28;5165763;27;20046;-90
2023/04/26 21:22:20;;;;;;;63.42;57.80;;;;;;;9.77;100.00;100669.31;5166853;27;20054;-89
2023/04/26 21:24:50;;;;;;;63.58;57.70;;;;;;;9.60;100.00;100671.53;5165130;27;20519;-89
2023/04/26 21:27:17;;;;;;;65.57;59.88;;;;;;;9.50;100.00;100668.44;5160425;27;20043;-89
2023/04/26 21:29:44;;;;;;;67.22;61.13;;;;;;;9.52;100.00;100677.00;5160645;27;20042;-89
2023/04/26 21:32:12;;;;;;;145.63;136.18;;;;;;;9.44;100.00;100671.88;5160849;27;20095;-89
2023/04/26 21:34:39;;;;;;;147.00;137.73;;;;;;;9.48;100.00;100673.94;5159948;27;20069;-89
2023/04/26 21:37:06;;;;;;;138.70;129.60;;;;;;;9.34;100.00;100665.13;5164039;27;20091;-89
2023/04/26 21:39:33;;;;;;;146.63;136.75;;;;;;;9.37;100.00;100670.03;5168828;27;20087;-89
2023/04/26 21:42:02;;;;;;;147.13;137.48;;;;;;;9.31;100.00;100680.59;5165384;27;20047;-89
2023/04/26 21:44:29;;;;;;;157.88;147.25;;;;;;;9.39;100.00;100683.91;5160615;27;20041;-89
2023/04/26 21:46:56;;;;;;;143.18;134.02;;;;;;;9.27;100.00;100669.59;5164453;27;20519;-90
2023/04/26 21:49:24;;;;;;;81.20;74.35;;;;;;;9.18;100.00;100670.78;5159540;27;20419;-90
2023/04/26 21:51:51;;;;;;;73.20;66.70;;;;;;;9.27;100.00;100674.88;5162861;27;20038;-89
2023/04/26 21:54:19;;;;;;;77.70;70.93;;;;;;;9.24;100.00;100674.47;5161097;27;20042;-89
2023/04/26 21:56:46;;;;;;;70.15;63.78;;;;;;;9.18;100.00;100684.84;5159784;27;20050;-88
2023/04/26 21:59:14;;;;;;;65.97;60.08;;;;;;;10.21;100.00;100679.34;5167488;27;20494;-89
2023/04/26 22:01:41;;;;;;;60.28;54.78;;;;;;;9.99;100.00;100689.34;5160177;27;20122;-89
2023/04/26 22:04:08;;;;;;;57.60;52.60;;;;;;;9.80;100.00;100680.34;5158881;27;20078;-89
2023/04/26 22:06:36;;;;;;;69.68;63.97;;;;;;;10.71;100.00;100692.19;5155520;27;20050;-89
2023/04/26 22:09:03;;;;;;;42.67;38.78;;;;;;;9.77;100.00;100699.31;5157473;27;20104;-89